Donnellson, Iowa
Current Conditions -  °F | °C
As of 2:35 PM on Monday 22 Dec 2014 (Local Time) from KFSW Reporting Station
Haze Haze  
Wind Chill:   Ceiling: 300
Heat Index:   Visibility: 1.5mi
Dew Point:   Wind: 3mph
Humidity: 100%   Direction: 140°SE
Pressure: 29.55"   Gusts: NA
Location:  40.64°N, 91.56°W
Report Text: KFSW 222035Z AUTO 14003KT 1 1/2SM BR OVC003 06/06 A2955 RMK AO2
Loading
Personal Weather Stations






























Interactive Weather Map New forecast layout! Learn more

10-Day Weather Forecast

Advertisements
Track Severe Weather on mobile